Weather at Palma De Mallorca Airport

Public forecast

Using degrees Celsius for public forecast. Weather courtesy of forecast.io.

Current aviation weather report (METAR) for Palma De Mallorca Airport

Retrieved 2021/01/25 22:30 UTC (14 minutes ago):

LEPA 252230Z 06018KT 9999 FEW012 SCT020 11/09 Q1014 NOSIG

Aviation forecast (TAF) for Palma De Mallorca Airport

Retrieved 2021/01/25 18:27 UTC (4 hours ago):

TAF TAF LEPA 251700Z 2518/2618 27009KT 9999 FEW020 TX14/2612Z TN07/2606Z TEMPO 2518/2522 VRB04KT RA BKN020 BECMG 2520/2522 04009KT BECMG 2603/2605 VRB04KT BECMG 2610/2612 22009KT